Time;durP1;ratioP1;P1;durP2;ratioP2;P2;SDS_P1;SDS_P2;PMS_P1;PMS_P2;Temp;Humidity;BMP_temperature;BMP_pressure;BME280_temperature;BME280_humidity;BME280_pressure;Samples;Min_cycle;Max_cycle;Signal;HPM_P1;HPM_P2
2022/03/31 00:00:53;;;;;;;9.55;5.10;;;;;;;0.04;100.00;100567.25;4974467;28;20198;-44
2022/03/31 00:03:20;;;;;;;6.20;5.18;;;;;;;0.03;100.00;100577.78;4973783;28;20265;-42
2022/03/31 00:05:46;;;;;;;7.68;4.68;;;;;;;0.09;100.00;100569.88;4973638;28;20364;-43
2022/03/31 00:08:13;;;;;;;6.63;5.53;;;;;;;0.18;100.00;100568.13;4974037;28;20646;-43
2022/03/31 00:10:41;;;;;;;8.35;5.50;;;;;;;0.13;100.00;100575.16;4973963;28;20166;-45
2022/03/31 00:13:10;;;;;;;10.18;5.60;;;;;;;0.05;100.00;100568.16;4973787;28;20523;-44
2022/03/31 00:15:37;;;;;;;8.88;5.30;;;;;;;0.13;100.00;100567.28;4972079;28;20668;-45
2022/03/31 00:18:04;;;;;;;7.95;5.93;;;;;;;0.06;100.00;100578.66;4972157;28;20320;-45
2022/03/31 00:20:30;;;;;;;9.07;5.72;;;;;;;0.02;100.00;100576.03;4972443;28;20268;-45
2022/03/31 00:22:56;;;;;;;7.82;5.68;;;;;;;0.06;100.00;100576.03;4971986;28;20257;-47
2022/03/31 00:25:23;;;;;;;8.60;5.43;;;;;;;0.08;100.00;100576.03;4971896;28;20333;-47
2022/03/31 00:27:50;;;;;;;7.82;5.70;;;;;;;0.04;100.00;100577.78;4971181;28;20174;-46
2022/03/31 00:30:15;;;;;;;9.75;5.72;;;;;;;0.10;100.00;100585.69;4971556;28;20178;-46
2022/03/31 00:32:41;;;;;;;7.45;5.53;;;;;;;0.19;100.00;100579.53;4972217;28;20170;-47
2022/03/31 00:35:10;;;;;;;9.27;5.35;;;;;;;0.06;100.00;100581.28;4971520;28;20189;-46
2022/03/31 00:37:36;;;;;;;7.75;6.13;;;;;;;0.05;100.00;100566.38;4971980;28;20607;-47
2022/03/31 00:40:03;;;;;;;7.25;5.93;;;;;;;0.06;100.00;100577.78;4970510;28;20191;-48
2022/03/31 00:42:28;;;;;;;7.43;5.60;;;;;;;0.05;100.00;100571.66;4971771;28;20201;-47
2022/03/31 00:44:54;;;;;;;8.13;5.82;;;;;;;0.04;100.00;100579.53;4970179;28;20270;-48
2022/03/31 00:47:20;;;;;;;7.95;5.18;;;;;;;0.05;100.00;100565.50;4971813;28;20269;-48
2022/03/31 00:49:46;;;;;;;8.77;5.53;;;;;;;0.04;100.00;100561.97;4971710;28;20614;-45
2022/03/31 00:52:12;;;;;;;6.40;5.13;;;;;;;-0.01;100.00;100561.97;4971348;28;20196;-45
2022/03/31 00:54:39;;;;;;;7.68;5.57;;;;;;;-0.02;100.00;100565.50;4971647;28;20170;-45
2022/03/31 00:57:06;;;;;;;7.00;5.95;;;;;;;-0.05;100.00;100565.47;4971730;28;20246;-47
2022/03/31 00:59:32;;;;;;;9.75;5.57;;;;;;;0.03;100.00;100567.25;4969840;28;20166;-44
2022/03/31 01:01:59;;;;;;;10.23;5.20;;;;;;;-0.09;100.00;100560.22;4971720;28;20256;-45
2022/03/31 01:04:26;;;;;;;7.10;5.68;;;;;;;-0.16;100.00;100572.50;4970368;28;20276;-46
2022/03/31 01:06:52;;;;;;;6.07;5.18;;;;;;;-0.16;100.00;100572.50;4971233;28;20169;-45
2022/03/31 01:09:18;;;;;;;9.90;5.38;;;;;;;-0.16;100.00;100564.59;4970288;28;20397;-46
2022/03/31 01:11:45;;;;;;;8.43;5.63;;;;;;;-0.18;100.00;100568.97;4971678;28;20184;-41
2022/03/31 01:14:11;;;;;;;6.28;5.30;;;;;;;-0.16;100.00;100569.00;4971497;28;20198;-43
2022/03/31 01:16:37;;;;;;;6.38;5.43;;;;;;;-0.15;100.00;100566.38;4971183;28;20273;-43
2022/03/31 01:19:09;;;;;;;9.98;5.28;;;;;;;-0.16;100.00;100566.34;4971044;28;20182;-42
2022/03/31 01:21:43;;;;;;;6.18;5.57;;;;;;;-0.20;100.00;100573.34;4953923;28;20249;-45
2022/03/31 01:24:10;;;;;;;5.88;4.72;;;;;;;-0.21;100.00;100576.88;4969815;28;20397;-46
2022/03/31 01:26:40;;;;;;;6.97;5.35;;;;;;;-0.29;100.00;100568.09;4971150;28;20681;-43
2022/03/31 01:29:06;;;;;;;9.30;5.60;;;;;;;-0.23;100.00;100570.75;4971220;28;20174;-43
2022/03/31 01:31:32;;;;;;;11.90;6.18;;;;;;;-0.25;100.00;100569.84;4971681;28;20171;-42
2022/03/31 01:33:58;;;;;;;6.32;5.30;;;;;;;-0.30;100.00;100568.97;4971486;28;20189;-43
2022/03/31 01:36:27;;;;;;;6.10;5.50;;;;;;;-0.27;100.00;100579.50;4970783;28;20189;-43
2022/03/31 01:38:55;;;;;;;9.50;5.05;;;;;;;-0.27;100.00;100574.22;4971541;28;20193;-44
2022/03/31 01:41:21;;;;;;;10.80;5.07;;;;;;;-0.30;100.00;100568.97;4971394;28;20202;-42
2022/03/31 01:43:47;;;;;;;9.63;5.00;;;;;;;-0.26;100.00;100573.38;4971471;28;20182;-43
2022/03/31 01:46:13;;;;;;;5.47;4.95;;;;;;;-0.26;100.00;100576.88;4971317;28;20194;-43
2022/03/31 01:48:38;;;;;;;6.90;5.00;;;;;;;-0.24;100.00;100568.97;4968934;28;20170;-46
2022/03/31 01:51:04;;;;;;;8.25;4.93;;;;;;;-0.23;100.00;100565.47;4980066;28;20192;-44
2022/03/31 01:53:36;;;;;;;5.70;4.65;;;;;;;-0.30;100.00;100569.84;4988389;28;20224;-44
2022/03/31 01:56:03;;;;;;;5.78;4.72;;;;;;;-0.29;100.00;100566.31;4989939;28;20671;-44
2022/03/31 01:58:28;;;;;;;6.47;4.95;;;;;;;-0.30;100.00;100561.94;4990367;28;20178;-43
2022/03/31 02:00:54;;;;;;;8.57;4.82;;;;;;;-0.42;100.00;100554.91;4990061;28;20192;-44
2022/03/31 02:03:22;;;;;;;8.23;4.82;;;;;;;-0.36;100.00;100567.19;4993329;28;20223;-47
2022/03/31 02:05:48;;;;;;;5.10;4.65;;;;;;;-0.35;100.00;100565.44;4983468;28;20202;-46
2022/03/31 02:08:13;;;;;;;6.63;4.32;;;;;;;-0.38;100.00;100570.72;4974965;28;20629;-43
2022/03/31 02:10:39;;;;;;;7.53;4.55;;;;;;;-0.46;100.00;100568.03;4973805;28;20221;-44
2022/03/31 02:13:07;;;;;;;4.90;4.32;;;;;;;-0.39;100.00;100569.84;4973516;28;20613;-45
2022/03/31 02:15:32;;;;;;;5.82;4.07;;;;;;;-0.43;100.00;100571.56;4974075;28;20229;-46
2022/03/31 02:17:59;;;;;;;7.78;4.47;;;;;;;-0.41;100.00;100574.22;4974501;28;20248;-42
2022/03/31 02:20:26;;;;;;;6.30;4.43;;;;;;;-0.47;100.00;100571.56;4974384;28;20398;-43
2022/03/31 02:22:52;;;;;;;4.55;4.00;;;;;;;-0.40;100.00;100578.59;4974628;28;20201;-44
2022/03/31 02:25:18;;;;;;;9.68;4.47;;;;;;;-0.42;100.00;100570.72;4973974;28;20198;-43
2022/03/31 02:27:43;;;;;;;6.78;3.95;;;;;;;-0.39;100.00;100564.56;4974615;28;20241;-43
2022/03/31 02:30:09;;;;;;;7.45;4.65;;;;;;;-0.41;100.00;100568.94;4972605;28;20185;-44
2022/03/31 02:32:37;;;;;;;5.50;4.35;;;;;;;-0.38;100.00;100578.59;4974411;28;20569;-44
2022/03/31 02:35:05;;;;;;;7.72;4.25;;;;;;;-0.47;100.00;100569.81;4973371;28;20206;-44
2022/03/31 02:37:30;;;;;;;8.43;4.20;;;;;;;-0.47;100.00;100569.81;4973973;28;20182;-42
2022/03/31 02:39:56;;;;;;;7.72;4.55;;;;;;;-0.43;100.00;100574.19;4974335;28;20229;-42
2022/03/31 02:42:21;;;;;;;4.97;4.45;;;;;;;-0.45;100.00;100567.19;4973893;28;20681;-46
2022/03/31 02:44:47;;;;;;;5.80;4.30;;;;;;;-0.48;100.00;100573.31;4974321;28;20201;-43
2022/03/31 02:47:12;;;;;;;4.97;4.13;;;;;;;-0.48;100.00;100572.41;4973474;28;20249;-44
2022/03/31 02:49:38;;;;;;;4.63;4.00;;;;;;;-0.50;100.00;100572.44;4974283;28;20320;-45
2022/03/31 02:52:04;;;;;;;8.57;4.20;;;;;;;-0.50;100.00;100571.56;4974124;28;20305;-46
2022/03/31 02:57:13;;;;;;;5.28;4.00;;;;;;;-0.43;100.00;100561.03;4973542;28;20174;-43
2022/03/31 02:59:39;;;;;;;7.20;4.45;;;;;;;-0.46;100.00;100568.94;4973436;28;20208;-44
2022/03/31 03:02:05;;;;;;;6.03;4.45;;;;;;;-0.48;100.00;100570.69;4973654;28;20197;-44
2022/03/31 03:04:31;;;;;;;8.73;4.40;;;;;;;-0.51;100.00;100562.78;4973180;28;20621;-44
2022/03/31 03:06:57;;;;;;;5.00;3.72;;;;;;;-0.43;100.00;100563.69;4973354;28;20684;-44
2022/03/31 03:09:22;;;;;;;5.85;3.83;;;;;;;-0.46;100.00;100566.31;4973653;28;20217;-45
2022/03/31 03:11:48;;;;;;;4.30;3.83;;;;;;;-0.47;100.00;100577.69;4973083;28;20602;-43
2022/03/31 03:14:14;;;;;;;6.10;4.15;;;;;;;-0.37;100.00;100575.06;4972760;28;20174;-43
2022/03/31 03:16:40;;;;;;;4.60;3.63;;;;;;;-0.45;100.00;100559.28;4972876;28;20209;-44
2022/03/31 03:19:06;;;;;;;5.78;3.95;;;;;;;-0.38;100.00;100565.44;4973366;28;20186;-43
2022/03/31 03:21:31;;;;;;;7.05;3.60;;;;;;;-0.47;100.00;100566.28;4973569;28;20566;-43
2022/03/31 03:23:57;;;;;;;6.82;3.67;;;;;;;-0.36;100.00;100569.81;4973326;28;20193;-45
2022/03/31 03:26:22;;;;;;;4.40;3.30;;;;;;;-0.39;100.00;100563.66;4973215;28;20296;-42
2022/03/31 03:28:48;;;;;;;5.43;3.72;;;;;;;-0.37;100.00;100581.25;4972976;28;20174;-44
2022/03/31 03:31:13;;;;;;;7.43;4.25;;;;;;;-0.39;100.00;100568.94;4973275;28;20201;-45
2022/03/31 03:33:39;;;;;;;7.03;3.67;;;;;;;-0.39;100.00;100577.72;4973371;28;20185;-43
2022/03/31 03:36:08;;;;;;;9.07;3.90;;;;;;;-0.39;100.00;100574.19;4973133;28;20190;-44
2022/03/31 03:38:34;;;;;;;6.05;3.30;;;;;;;-0.39;100.00;100567.22;4973029;28;20178;-44
2022/03/31 03:40:59;;;;;;;4.47;3.30;;;;;;;-0.30;100.00;100559.31;4972806;28;20217;-46
2022/03/31 03:43:25;;;;;;;4.00;3.28;;;;;;;-0.27;100.00;100568.97;4973052;28;20205;-43
2022/03/31 03:45:51;;;;;;;5.47;3.17;;;;;;;-0.31;100.00;100562.81;4971579;28;20547;-43
2022/03/31 03:48:17;;;;;;;5.85;2.70;;;;;;;-0.25;100.00;100573.34;4972833;28;20196;-43
2022/03/31 03:50:42;;;;;;;6.32;2.85;;;;;;;-0.17;100.00;100561.97;4991843;28;20691;-43
2022/03/31 03:53:08;;;;;;;5.22;3.20;;;;;;;-0.15;100.00;100562.84;4992168;28;20264;-45
2022/03/31 03:55:36;;;;;;;3.90;2.85;;;;;;;-0.08;100.00;100573.38;4991957;28;20259;-47
2022/03/31 03:58:03;;;;;;;5.13;2.70;;;;;;;-0.09;100.00;100576.00;4992125;28;20440;-43
2022/03/31 04:00:28;;;;;;;4.63;3.00;;;;;;;-0.05;100.00;100565.47;4991852;28;20246;-44
2022/03/31 04:02:54;;;;;;;5.32;2.50;;;;;;;-0.08;100.00;100569.88;4992136;28;20181;-46
2022/03/31 04:05:20;;;;;;;3.05;2.22;;;;;;;0.02;100.00;100565.50;4986841;28;20238;-42
2022/03/31 04:07:46;;;;;;;4.25;2.20;;;;;;;0.05;100.00;100571.66;4992072;28;20583;-44
2022/03/31 04:10:12;;;;;;;4.18;2.70;;;;;;;0.08;100.00;100557.59;4992290;28;20502;-42
2022/03/31 04:12:39;;;;;;;3.30;2.72;;;;;;;0.10;100.00;100564.63;4992146;28;20549;-43
2022/03/31 04:15:06;;;;;;;4.75;2.88;;;;;;;0.10;100.00;100558.47;4990926;28;20193;-44
2022/03/31 04:17:32;;;;;;;6.68;2.30;;;;;;;0.15;99.38;100565.50;4990360;28;20174;-44
2022/03/31 04:19:58;;;;;;;3.08;2.17;;;;;;;0.19;97.77;100550.56;4992246;28;20197;-43
2022/03/31 04:22:23;;;;;;;3.13;2.28;;;;;;;0.20;96.70;100555.84;4991504;28;20292;-44
2022/03/31 04:24:49;;;;;;;3.72;2.10;;;;;;;0.24;96.46;100561.09;4990209;28;20240;-47
2022/03/31 04:27:14;;;;;;;5.22;2.30;;;;;;;0.24;96.04;100566.38;4989268;28;20261;-46
2022/03/31 04:29:40;;;;;;;5.60;2.45;;;;;;;0.21;95.74;100561.97;4991378;28;20181;-47
2022/03/31 04:32:06;;;;;;;2.13;1.92;;;;;;;0.22;94.38;100560.22;4991507;28;20207;-45
2022/03/31 04:34:32;;;;;;;3.22;2.10;;;;;;;0.36;92.88;100561.09;4991221;28;20597;-45
2022/03/31 04:36:58;;;;;;;3.63;1.80;;;;;;;0.31;92.33;100566.38;4991195;28;20165;-47
2022/03/31 04:39:23;;;;;;;3.30;1.73;;;;;;;0.34;91.81;100565.50;4991238;28;20170;-44
2022/03/31 04:41:48;;;;;;;3.17;1.77;;;;;;;0.39;90.70;100569.00;4989445;28;20254;-46
2022/03/31 04:44:14;;;;;;;3.35;2.20;;;;;;;0.32;90.31;100564.63;4991526;28;20205;-48
2022/03/31 04:46:40;;;;;;;4.07;2.00;;;;;;;0.33;90.19;100572.53;4990425;28;20197;-45
2022/03/31 04:49:05;;;;;;;2.67;2.03;;;;;;;0.37;88.71;100565.47;4989763;28;20212;-47
2022/03/31 04:51:31;;;;;;;3.42;2.10;;;;;;;0.40;88.50;100565.50;4990863;28;20239;-45
2022/03/31 04:53:56;;;;;;;5.43;1.98;;;;;;;0.30;88.69;100577.78;4991406;28;20245;-46
2022/03/31 04:56:21;;;;;;;2.30;1.90;;;;;;;0.39;87.84;100569.91;4972985;28;20201;-46
2022/03/31 04:58:47;;;;;;;3.15;1.65;;;;;;;0.44;86.79;100571.63;4990548;28;20561;-48
2022/03/31 05:01:12;;;;;;;4.35;2.03;;;;;;;0.40;86.63;100579.53;4990594;28;20672;-45
2022/03/31 05:03:41;;;;;;;2.80;2.00;;;;;;;0.34;87.19;100570.75;4990525;28;20189;-46
2022/03/31 05:06:07;;;;;;;5.38;2.22;;;;;;;0.50;86.17;100580.41;4978271;28;20198;-44
2022/03/31 05:08:33;;;;;;;3.35;2.10;;;;;;;0.47;86.11;100584.81;4970949;28;20181;-44
2022/03/31 05:10:59;;;;;;;4.00;1.98;;;;;;;0.43;85.92;100588.31;4970526;28;20174;-45
2022/03/31 05:13:24;;;;;;;2.50;1.77;;;;;;;0.44;84.34;100585.69;4969867;28;20257;-46
2022/03/31 05:15:50;;;;;;;2.40;1.90;;;;;;;0.40;84.67;100587.44;4961164;28;20761;-46
2022/03/31 05:18:16;;;;;;;2.78;1.98;;;;;;;0.38;84.77;100586.56;4970848;28;20186;-47
2022/03/31 05:20:43;;;;;;;4.53;1.88;;;;;;;0.42;84.87;100595.38;4969475;28;20210;-47
2022/03/31 05:23:10;;;;;;;5.07;2.13;;;;;;;0.47;83.74;100592.72;4969345;28;20180;-46
2022/03/31 05:25:35;;;;;;;4.55;2.03;;;;;;;0.52;83.75;100588.31;4968874;28;20232;-48
2022/03/31 05:28:01;;;;;;;3.30;2.00;;;;;;;0.45;84.86;100595.34;4970695;28;20269;-45
2022/03/31 05:30:26;;;;;;;2.17;1.70;;;;;;;0.46;84.25;100588.31;4970429;28;20170;-46
2022/03/31 05:32:53;;;;;;;3.15;1.95;;;;;;;0.47;83.96;100606.78;4969446;28;20185;-49
2022/03/31 05:35:19;;;;;;;4.47;2.13;;;;;;;0.50;83.79;100587.44;4970112;28;20228;-46
2022/03/31 05:37:45;;;;;;;4.28;1.80;;;;;;;0.51;82.88;100602.38;4973022;28;20458;-46
2022/03/31 05:40:13;;;;;;;2.95;1.70;;;;;;;0.58;80.78;100594.44;4973127;28;20174;-47
2022/03/31 05:42:39;;;;;;;4.32;1.85;;;;;;;0.46;81.20;100602.41;4975022;28;20554;-47
2022/03/31 05:45:07;;;;;;;2.45;1.52;;;;;;;0.50;79.13;100609.38;4973167;28;20589;-47
2022/03/31 05:47:33;;;;;;;2.13;1.73;;;;;;;0.48;80.36;100597.09;4974009;28;20174;-46
2022/03/31 05:49:59;;;;;;;2.47;1.63;;;;;;;0.52;79.46;100614.66;4974849;28;20181;-44
2022/03/31 05:52:24;;;;;;;2.10;1.70;;;;;;;0.52;79.67;100605.00;4973090;28;20216;-46
2022/03/31 05:54:50;;;;;;;2.97;1.65;;;;;;;0.52;78.34;100617.31;4974351;28;20301;-45
2022/03/31 05:57:16;;;;;;;3.00;1.73;;;;;;;0.48;79.43;100618.19;4972725;28;20182;-47
2022/03/31 05:59:42;;;;;;;2.15;1.75;;;;;;;0.48;79.82;100619.09;4974124;28;20170;-47
2022/03/31 06:02:08;;;;;;;3.55;1.70;;;;;;;0.45;80.15;100626.97;4974175;28;20214;-47
2022/03/31 06:04:34;;;;;;;1.83;1.60;;;;;;;0.48;80.79;100632.25;4972679;28;20500;-45
2022/03/31 06:07:00;;;;;;;2.17;1.75;;;;;;;0.54;80.79;100629.59;4989835;28;20227;-48
2022/03/31 06:09:25;;;;;;;3.85;1.98;;;;;;;0.56;81.70;100627.84;4977606;28;20277;-46
2022/03/31 06:11:51;;;;;;;2.63;1.92;;;;;;;0.62;82.17;100632.25;4974227;28;20629;-45
2022/03/31 06:14:16;;;;;;;2.63;2.25;;;;;;;0.62;83.39;100632.25;4974696;28;20166;-43
2022/03/31 06:16:42;;;;;;;5.35;2.40;;;;;;;0.70;82.92;100624.31;4980647;28;20201;-44
2022/03/31 06:19:10;;;;;;;3.75;2.78;;;;;;;0.62;83.48;100640.16;4991765;28;20186;-43
2022/03/31 06:21:36;;;;;;;6.25;2.28;;;;;;;0.68;83.40;100629.59;4983290;28;20248;-42
2022/03/31 06:24:03;;;;;;;5.82;2.67;;;;;;;0.73;83.49;100646.28;4984928;28;20693;-43
2022/03/31 06:26:29;;;;;;;3.42;2.40;;;;;;;0.68;83.85;100632.25;4993789;28;20209;-42
2022/03/31 06:28:55;;;;;;;3.67;2.30;;;;;;;0.70;83.67;100635.75;4994819;28;20252;-50
2022/03/31 06:31:23;;;;;;;4.80;2.50;;;;;;;0.78;84.02;100639.25;4978007;28;20192;-41
2022/03/31 06:33:48;;;;;;;2.75;1.88;;;;;;;0.75;83.05;100647.16;4975483;28;20189;-43
2022/03/31 06:36:14;;;;;;;3.17;1.98;;;;;;;0.72;82.44;100655.09;4973264;28;20202;-42
2022/03/31 06:38:39;;;;;;;4.40;2.20;;;;;;;0.77;82.36;100639.28;4973926;28;20209;-42
2022/03/31 06:41:13;;;;;;;5.47;2.42;;;;;;;0.75;82.25;100660.34;4975018;28;20198;-44
2022/03/31 06:43:39;;;;;;;2.88;2.08;;;;;;;0.71;81.81;100642.78;4974945;28;20226;-43
2022/03/31 06:46:06;;;;;;;9.93;2.10;;;;;;;0.75;81.86;100655.09;4974259;28;20198;-44
2022/03/31 06:48:31;;;;;;;3.47;1.85;;;;;;;0.73;80.72;100653.34;4974133;28;20175;-43
2022/03/31 06:50:57;;;;;;;3.53;1.90;;;;;;;0.79;80.62;100661.25;4974771;28;20630;-43
2022/03/31 06:53:23;;;;;;;2.97;2.10;;;;;;;0.83;79.76;100655.06;4974987;28;20205;-42
2022/03/31 06:55:49;;;;;;;1.73;1.60;;;;;;;0.76;80.33;100654.19;4974698;28;20194;-43
2022/03/31 06:58:15;;;;;;;8.55;2.45;;;;;;;0.73;80.08;100664.75;4975259;28;20276;-43
2022/03/31 07:00:41;;;;;;;6.32;2.10;;;;;;;0.70;81.14;100663.88;4985330;28;20343;-41
2022/03/31 07:03:06;;;;;;;4.32;1.90;;;;;;;0.67;81.10;100664.75;4990180;28;20682;-41
2022/03/31 07:05:35;;;;;;;2.22;1.85;;;;;;;0.71;80.49;100665.63;4974005;28;20206;-44
2022/03/31 07:08:01;;;;;;;3.08;1.85;;;;;;;0.76;81.39;100677.03;4974139;28;20178;-43
2022/03/31 07:10:26;;;;;;;2.55;1.88;;;;;;;0.67;81.10;100675.28;4983142;28;20185;-43
2022/03/31 07:12:52;;;;;;;3.30;1.92;;;;;;;0.69;80.61;100670.03;4994214;28;20190;-45
2022/03/31 07:15:17;;;;;;;7.15;2.03;;;;;;;0.76;80.62;100680.56;4993817;28;20189;-44
2022/03/31 07:17:42;;;;;;;1.60;1.50;;;;;;;0.77;79.24;100684.97;4984775;28;20657;-43
2022/03/31 07:20:09;;;;;;;3.10;1.70;;;;;;;0.74;79.47;100682.31;4983621;28;20227;-45
2022/03/31 07:22:45;;;;;;;2.38;1.95;;;;;;;0.81;79.70;100681.47;4993252;28;20300;-42
2022/03/31 07:25:11;;;;;;;2.40;1.60;;;;;;;0.84;79.30;100679.69;4976984;28;20212;-45
2022/03/31 07:27:37;;;;;;;3.05;1.45;;;;;;;0.85;78.44;100676.16;4982963;28;20201;-43
2022/03/31 07:30:03;;;;;;;4.03;1.75;;;;;;;0.88;78.06;100666.50;4974515;28;20589;-43
2022/03/31 07:32:28;;;;;;;2.78;1.40;;;;;;;0.96;78.17;100682.31;4974407;28;20174;-43
2022/03/31 07:34:54;;;;;;;2.03;1.27;;;;;;;0.89;78.20;100670.00;4973591;28;20202;-43
2022/03/31 07:37:19;;;;;;;4.15;1.70;;;;;;;0.98;78.56;100673.53;4974103;28;20248;-42
2022/03/31 07:39:48;;;;;;;3.88;1.58;;;;;;;1.02;77.91;100669.09;4974695;28;20170;-42
2022/03/31 07:42:14;;;;;;;1.92;1.40;;;;;;;1.05;77.88;100677.03;4980571;28;20300;-42
2022/03/31 07:44:40;;;;;;;3.05;1.60;;;;;;;1.09;77.35;100683.16;4994014;28;20173;-45
2022/03/31 07:47:06;;;;;;;3.83;1.65;;;;;;;1.17;77.62;100674.34;4993086;28;20177;-45
2022/03/31 07:49:32;;;;;;;5.05;2.10;;;;;;;1.06;77.46;100676.13;4993218;28;20652;-43
2022/03/31 07:51:57;;;;;;;2.38;1.35;;;;;;;1.12;77.66;100673.50;4993230;28;20261;-43
2022/03/31 07:54:23;;;;;;;3.33;1.58;;;;;;;1.09;76.79;100680.53;4993673;28;20188;-43
2022/03/31 07:56:50;;;;;;;4.18;1.58;;;;;;;1.14;76.67;100679.66;4992624;28;20201;-43
2022/03/31 07:59:21;;;;;;;4.13;2.10;;;;;;;1.15;76.25;100669.97;4990280;28;20170;-46
2022/03/31 08:01:47;;;;;;;3.42;1.52;;;;;;;1.17;76.76;100669.06;4988368;28;20189;-40
2022/03/31 08:04:13;;;;;;;1.80;1.40;;;;;;;1.30;76.26;100676.97;4986760;28;20196;-40
2022/03/31 08:06:39;;;;;;;4.32;1.42;;;;;;;1.18;74.21;100665.56;4990408;28;20287;-41
2022/03/31 08:09:04;;;;;;;1.73;1.38;;;;;;;1.30;74.88;100675.19;4975641;28;20291;-45
2022/03/31 08:11:30;;;;;;;2.75;1.70;;;;;;;1.27;74.93;100674.31;4981933;28;20196;-43
2022/03/31 08:13:56;;;;;;;3.05;1.63;;;;;;;1.38;74.49;100678.72;4992546;28;20664;-47
2022/03/31 08:16:22;;;;;;;5.45;1.30;;;;;;;1.29;75.50;100684.03;5005253;28;20271;-45
2022/03/31 08:18:51;;;;;;;1.10;0.85;;;;;;;1.30;73.85;100706.00;4993465;28;20170;-43
2022/03/31 08:21:16;;;;;;;1.70;1.10;;;;;;;1.31;72.99;100690.19;4982347;28;20284;-45
2022/03/31 08:23:42;;;;;;;2.95;1.40;;;;;;;1.27;72.47;100671.69;4972288;28;20212;-42
2022/03/31 08:26:08;;;;;;;1.60;1.30;;;;;;;1.30;73.53;100674.34;4995788;28;20216;-44
2022/03/31 08:28:33;;;;;;;1.45;1.00;;;;;;;1.30;72.43;100683.13;4976111;28;20669;-43
2022/03/31 08:30:59;;;;;;;2.08;1.00;;;;;;;1.36;72.00;100674.31;4972336;28;20193;-43
2022/03/31 08:33:25;;;;;;;1.67;1.25;;;;;;;1.35;71.40;100685.75;4954945;28;20177;-43
2022/03/31 08:35:51;;;;;;;2.22;1.15;;;;;;;1.30;70.16;100706.88;4967345;28;20198;-45
2022/03/31 08:38:16;;;;;;;3.03;1.02;;;;;;;1.32;70.03;100689.28;4965405;28;20293;-46
2022/03/31 08:40:44;;;;;;;1.08;0.93;;;;;;;1.33;69.34;100698.06;4971435;28;20186;-46
2022/03/31 08:43:09;;;;;;;2.05;0.95;;;;;;;1.37;69.61;100686.63;4971985;28;20173;-41
2022/03/31 08:45:37;;;;;;;1.23;1.00;;;;;;;1.36;69.54;100703.34;4971233;28;20572;-42
2022/03/31 08:48:04;;;;;;;2.15;1.30;;;;;;;1.42;69.27;100703.31;4972063;28;20166;-44
2022/03/31 08:50:33;;;;;;;3.72;0.90;;;;;;;1.45;69.75;100695.41;4975796;28;20232;-41
2022/03/31 08:52:59;;;;;;;3.17;1.40;;;;;;;1.53;69.34;100703.28;4971791;28;20668;-44
2022/03/31 08:55:24;;;;;;;1.50;1.27;;;;;;;1.46;69.21;100698.91;4969685;28;20186;-47
2022/03/31 08:57:54;;;;;;;1.35;1.02;;;;;;;1.44;67.64;100696.25;4967994;28;20228;-44
2022/03/31 09:00:21;;;;;;;4.88;0.82;;;;;;;1.49;67.46;100701.53;4962934;28;20197;-43
2022/03/31 09:02:57;;;;;;;1.83;0.75;;;;;;;1.52;67.37;100707.69;4969886;28;20253;-46
2022/03/31 09:05:22;;;;;;;2.78;1.10;;;;;;;1.51;67.94;100726.16;4971275;28;20240;-43
2022/03/31 09:08:00;;;;;;;3.75;1.10;;;;;;;1.57;67.98;100705.03;4961876;28;20265;-45
2022/03/31 09:10:31;;;;;;;1.73;1.10;;;;;;;1.64;66.74;100735.84;4969555;28;20552;-46
2022/03/31 09:12:58;;;;;;;1.25;0.95;;;;;;;1.58;64.24;100763.13;4982852;28;20181;-44
2022/03/31 09:15:24;;;;;;;2.42;0.93;;;;;;;1.57;63.88;100718.22;4971581;28;20651;-45
2022/03/31 09:17:57;;;;;;;3.17;1.15;;;;;;;1.63;63.67;100737.56;4989484;28;20300;-44
2022/03/31 09:20:34;;;;;;;3.42;1.08;;;;;;;1.64;62.36;100712.06;4988946;28;20173;-44
2022/03/31 09:22:59;;;;;;;2.92;0.85;;;;;;;1.64;62.71;100722.63;4990129;28;20173;-45
2022/03/31 09:25:27;;;;;;;1.77;1.10;;;;;;;1.81;62.98;100719.91;4990211;28;20189;-45
2022/03/31 09:27:53;;;;;;;2.97;0.90;;;;;;;1.88;63.20;100707.53;4988508;28;20185;-45
2022/03/31 09:30:19;;;;;;;2.00;0.90;;;;;;;1.82;63.86;100701.41;4986439;28;20227;-46
2022/03/31 09:32:49;;;;;;;1.45;0.90;;;;;;;1.77;60.92;100726.09;4990048;28;20173;-43
2022/03/31 09:35:20;;;;;;;1.48;0.73;;;;;;;1.73;61.09;100716.41;4990075;28;20225;-44
2022/03/31 09:37:48;;;;;;;0.85;0.80;;;;;;;1.76;61.40;100732.25;4990234;28;20256;-43
2022/03/31 09:40:13;;;;;;;1.20;1.08;;;;;;;1.82;60.66;100725.19;4973009;28;20181;-43
2022/03/31 09:42:39;;;;;;;1.55;0.80;;;;;;;1.80;60.09;100731.38;4991067;28;20205;-43
2022/03/31 09:45:08;;;;;;;2.13;0.98;;;;;;;1.94;60.85;100723.38;4988946;28;20283;-44
2022/03/31 09:47:43;;;;;;;0.88;0.80;;;;;;;1.92;59.21;100723.38;4989798;28;20177;-43
2022/03/31 09:50:08;;;;;;;1.60;1.10;;;;;;;1.78;58.92;100735.78;4990205;28;20185;-44
2022/03/31 09:52:35;;;;;;;2.28;0.88;;;;;;;1.80;59.24;100747.22;4990293;28;20653;-42
2022/03/31 09:55:00;;;;;;;1.35;0.93;;;;;;;1.81;58.32;100725.19;4989720;28;20192;-44
2022/03/31 09:57:27;;;;;;;2.47;1.00;;;;;;;1.98;58.98;100739.22;4988235;28;20185;-44
2022/03/31 09:59:54;;;;;;;3.67;1.05;;;;;;;2.00;57.91;100729.50;4990167;28;20174;-44
2022/03/31 10:02:21;;;;;;;1.75;0.80;;;;;;;2.06;57.77;100745.34;4989852;28;20687;-45
2022/03/31 10:04:47;;;;;;;1.92;0.80;;;;;;;2.01;58.06;100780.59;4989821;28;20268;-43
2022/03/31 10:07:12;;;;;;;1.05;0.80;;;;;;;2.16;58.25;100732.06;4990076;28;20313;-42
2022/03/31 10:09:41;;;;;;;1.73;0.90;;;;;;;2.07;59.59;100733.00;4989949;28;20173;-41
2022/03/31 10:12:27;;;;;;;2.38;1.00;;;;;;;2.13;60.16;100732.09;4983564;28;20189;-45
2022/03/31 10:14:59;;;;;;;2.45;0.88;;;;;;;2.26;60.31;100731.16;4970560;28;20202;-43
2022/03/31 10:17:29;;;;;;;1.80;0.93;;;;;;;2.37;61.14;100721.38;4970465;28;20668;-42
2022/03/31 10:20:06;;;;;;;2.47;0.93;;;;;;;2.31;57.62;100739.03;4970761;28;20179;-42
2022/03/31 10:25:16;;;;;;;1.88;1.00;;;;;;;2.34;57.21;100742.56;4974168;28;20681;-44
2022/03/31 10:27:45;;;;;;;1.90;0.90;;;;;;;2.34;55.92;100745.22;4973583;28;20180;-42
2022/03/31 10:30:17;;;;;;;3.92;1.00;;;;;;;2.23;55.49;100744.38;4974188;28;20270;-44
2022/03/31 10:33:03;;;;;;;2.30;0.95;;;;;;;2.38;56.83;100727.53;4974234;28;20268;-43
2022/03/31 10:35:32;;;;;;;1.25;0.88;;;;;;;2.23;56.54;100733.78;4973813;28;20193;-45
2022/03/31 10:38:10;;;;;;;1.52;0.80;;;;;;;2.33;56.92;100730.22;4973488;28;20190;-43
2022/03/31 10:40:44;;;;;;;3.08;0.90;;;;;;;2.34;57.98;100736.38;4973570;28;20154;-44
2022/03/31 10:43:29;;;;;;;3.40;1.05;;;;;;;2.43;57.42;100718.69;4974157;28;20247;-45
2022/03/31 10:45:56;;;;;;;1.65;1.00;;;;;;;2.51;56.65;100731.84;4973422;28;20213;-45
2022/03/31 10:48:24;;;;;;;0.80;0.80;;;;;;;2.48;56.35;100719.53;4973866;28;20405;-44
2022/03/31 10:51:09;;;;;;;1.40;0.70;;;;;;;2.57;56.65;100718.59;4973926;28;20189;-44
2022/03/31 10:53:41;;;;;;;1.85;1.20;;;;;;;2.81;56.12;100714.00;4973783;28;20166;-44
2022/03/31 10:56:27;;;;;;;1.02;0.93;;;;;;;2.96;56.23;100724.47;4973401;28;20664;-46
2022/03/31 10:58:58;;;;;;;1.60;0.82;;;;;;;2.83;55.99;100731.63;4973270;28;20170;-43
2022/03/31 11:01:27;;;;;;;4.13;1.20;;;;;;;2.87;56.34;100717.47;4973673;28;20190;-44
2022/03/31 11:04:00;;;;;;;1.42;1.00;;;;;;;2.88;55.17;100718.34;4973407;28;20237;-44
2022/03/31 11:06:26;;;;;;;2.45;1.10;;;;;;;2.78;54.93;100719.34;4972923;28;20202;-44
2022/03/31 11:08:51;;;;;;;2.08;1.10;;;;;;;2.77;55.01;100712.28;4973445;28;20192;-45
2022/03/31 11:11:29;;;;;;;1.70;1.00;;;;;;;2.83;53.63;100718.41;4973054;28;20174;-44
2022/03/31 11:13:57;;;;;;;2.15;1.10;;;;;;;2.84;54.32;100712.22;4973538;28;20249;-45
2022/03/31 11:16:33;;;;;;;4.05;1.23;;;;;;;2.88;54.87;100724.50;4980551;28;20248;-43
2022/03/31 11:19:04;;;;;;;1.30;1.15;;;;;;;2.86;55.42;100699.88;4992741;28;20185;-45
2022/03/31 11:21:34;;;;;;;1.23;0.93;;;;;;;3.07;56.03;100714.66;4992597;28;20270;-48
2022/03/31 11:24:00;;;;;;;3.67;1.00;;;;;;;2.97;56.23;100712.09;4991712;28;20169;-44
2022/03/31 11:26:27;;;;;;;3.13;1.25;;;;;;;3.02;56.11;100726.19;4992364;28;20197;-44
2022/03/31 11:28:52;;;;;;;2.75;0.80;;;;;;;3.02;55.19;100716.47;4992376;28;20183;-43
2022/03/31 11:31:20;;;;;;;2.20;0.95;;;;;;;3.08;56.76;100720.81;4992664;28;20252;-48
2022/03/31 11:33:46;;;;;;;2.72;1.00;;;;;;;3.13;57.23;100742.84;4992542;28;20223;-44